Home > Products > Valid Products > TAF

000
FTUS46 KMTR 172300
TAFOAK
TAF
KOAK 172332Z 1800/1906 23012KT P6SM FEW012 SCT200
     FM180300 23008KT P6SM SCT015 BKN100
     FM180600 22006KT P6SM VCSH BKN015 BKN050
     FM181200 18010KT P6SM BKN020 OVC050 PROB30 1812/1820 -RA
     FM182000 24010KT P6SM -SHRA SCT025 BKN050
     FM190300 24007KT P6SM VCSH BKN030=



000
FTUS46 KMTR 172300
TAFSTS
TAF
KSTS 172332Z 1800/1824 18010KT P6SM FEW050 SCT200
     FM180500 15005KT P6SM VCSH BKN015 OVC050
     FM180900 15006KT P6SM -RA OVC015
     FM181800 21009KT P6SM -SHRA OVC020=



000
FTUS46 KMTR 172300
TAFSNS
TAF
KSNS 172332Z 1800/1824 29010KT P6SM SKC
     FM180300 29005KT P6SM BKN010
     FM180600 VRB03KT P6SM VCSH OVC012
     FM181600 VRB03KT P6SM VCSH OVC020=



000
FTUS46 KMTR 172300
TAFSJC
TAF
KSJC 172332Z 1800/1824 32010KT P6SM SKC
     FM180400 VRB03KT P6SM SCT200
     FM180800 15011KT P6SM VCSH BKN020 OVC050
     FM181800 19009KT P6SM -SHRA OVC030=



000
FTUS46 KMTR 172300
TAFSFO
TAF
KSFO 172332Z 1800/1906 28015KT P6SM FEW015 SCT200
     FM180400 25008KT P6SM SCT015 SCT100
     FM180700 20006KT P6SM VCSH BKN015 BKN050
     FM181200 17008KT P6SM BKN020 OVC050 PROB30 1812/1820 -RA
     FM182000 24010KT P6SM SCT025 BKN050 PROB30 1820/1824 -RA
     FM190300 24007KT P6SM BKN030=



000
FTUS46 KMTR 172300
TAFMRY
TAF
KMRY 172332Z 1800/1824 29008KT P6SM SCT010
     FM180200 29008KT P6SM BKN008
     FM180400 24005KT P6SM VCSH OVC012
     FM181600 VRB03KT P6SM VCSH OVC020=



000
FTUS46 KMTR 172000 AAA
TAFSFO
TAF AMD
KSFO 172058Z 1721/1824 VRB04KT P6SM FEW015
     FM172200 28015KT P6SM FEW015 SCT200
     FM180400 25008KT P6SM SCT015 SCT100
     FM180700 20006KT P6SM BKN015 BKN050 PROB30 1810/1812 -RA
     FM181200 17008KT P6SM BKN020 OVC050 PROB30 1812/1820 -RA
     FM182000 24010KT P6SM SCT025 BKN050 PROB30 1820/1824 -RA=



000
FTUS46 KMTR 171700
TAFMRY
TAF
KMRY 171736Z 1718/1818 29004KT P6SM SCT008
     FM172000 29008KT P6SM SCT010
     FM180200 29008KT P6SM BKN008
     FM180400 24005KT P6SM OVC007 PROB30 1808/1816 P6SM -DZ=



000
FTUS46 KMTR 171700
TAFSNS
TAF
KSNS 171736Z 1718/1818 29010KT P6SM SKC
     FM180300 29005KT P6SM BKN010
     FM180600 VRB04KT P6SM OVC008 PROB30 1808/1816 P6SM -DZ=



000
FTUS46 KMTR 171700
TAFSFO
TAF
KSFO 171736Z 1718/1824 09004KT P6SM FEW015
     FM172000 25015KT P6SM FEW015 SCT200
     FM180400 22008KT P6SM SCT015 SCT100
     FM180700 20006KT P6SM BKN015 BKN050 PROB30 1810/1812 -RA
     FM181200 17008KT P6SM BKN020 OVC050 PROB30 1812/1820 -RA
     FM182000 24010KT P6SM SCT025 BKN050 PROB30 1820/1824 -RA=



000
FTUS46 KMTR 171700
TAFSJC
TAF
KSJC 171736Z 1718/1818 32010KT P6SM SKC
     FM180400 VRB03KT P6SM SCT200
     FM180800 15011KT P6SM BKN020 OVC050 PROB30 1812/1818 -RA=



000
FTUS46 KMTR 171700
TAFOAK
TAF
KOAK 171736Z 1718/1824 23004KT P6SM FEW015
     FM172000 23012KT P6SM FEW012 SCT200
     FM180300 23008KT P6SM SCT015 BKN100
     FM180600 22006KT P6SM BKN015 BKN050 PROB30 1810/1812 -RA
     FM181200 18010KT P6SM BKN020 OVC050 PROB30 1812/1820 -RA
     FM182000 24010KT P6SM SCT025 BKN050 PROB30 1820/1824 -RA
      BKN025=



000
FTUS46 KMTR 171700
TAFSTS
TAF
KSTS 171736Z 1718/1818 VRB03KT P6SM SCT020
     FM172000 18010KT P6SM SCT200
     FM180500 15005KT P6SM BKN015 OVC050 PROB30 1806/1809 -RA
     FM180900 15006KT P6SM -RA OVC015=



000
FTUS46 KMTR 171500 AAA
TAFSJC
TAF AMD
KSJC 171504Z 1715/1812 00000KT P6SM BKN012
     FM171800 VRB03KT P6SM FEW012
     FM180300 30009KT P6SM FEW010 PROB30 1806/1808 P6SM -SHRA BKN025
     FM180800 15011KT P6SM -SHRA BKN025 OVC050
     FM181100 VRB05KT P6SM -SHRA BKN025=



000
FTUS46 KMTR 171500 AAA
TAFMRY
TAF AMD
KMRY 171504Z 1715/1812 10003KT P6SM OVC004
     FM171730 29008KT P6SM SKC
     FM180300 24004KT P6SM SCT009
     FM180600 24003KT P6SM OVC007 PROB30 1808/1812 P6SM -SHRA
      BKN025=



000
FTUS46 KMTR 171100 CCA
TAFSNS
TAF COR
KSNS 171143Z 1712/1812 00000KT P6SM SCT006
      TEMPO 1712/1716 OVC006
     FM171700 29011KT P6SM SKC
     FM180300 24004KT P6SM FEW008
     FM180700 VRB04KT P6SM OVC006 PROB30 1808/1812 P6SM -SHRA
      BKN025=



000
FTUS46 KMTR 171100
TAFSTS
TAF
KSTS 171139Z 1712/1812 00000KT P6SM OVC008
     FM171800 00000KT P6SM FEW011
     FM172100 18009KT P6SM SCT050
     FM180500 15007KT P6SM OVC007 PROB30 1805/1808 P6SM -RA OVC050
     FM180800 15006KT P6SM -SHRA OVC007=



000
FTUS46 KMTR 171100
TAFSJC
TAF
KSJC 171139Z 1712/1812 00000KT P6SM SKC
     FM171800 VRB03KT P6SM FEW012
     FM180300 30009KT P6SM FEW010 PROB30 1806/1808 P6SM -SHRA BKN025
     FM180800 15011KT P6SM -SHRA BKN025 OVC050
     FM181100 VRB05KT P6SM -SHRA BKN025=



000
FTUS46 KMTR 171100
TAFOAK
TAF
KOAK 171139Z 1712/1818 VRB04KT P6SM OVC012
     FM171600 VRB04KT P6SM SCT012
     FM172000 26012KT P6SM FEW012 SCT100
     FM180300 26009KT P6SM FEW012 BKN100
     FM180600 23015KT P6SM OVC050 PROB30 1806/1808 P6SM -SHRA OVC025
     FM180800 23015KT P6SM -SHRA OVC025
     FM181100 21011KT P6SM -SHRA BKN025=



000
FTUS46 KMTR 171100
TAFSFO
TAF
KSFO 171139Z 1712/1818 28007KT P6SM FEW010
      TEMPO 1713/1717 BKN010
     FM171800 27005KT P6SM SCT015
     FM172000 25015KT P6SM FEW020 SCT100
     FM180400 20009KT P6SM FEW010 SCT050
     FM180600 19006KT P6SM OVC050 PROB30 1806/1808 P6SM -SHRA OVC025
     FM180800 19006KT P6SM -SHRA OVC025
     FM181100 19006KT P6SM -SHRA BKN025=



000
FTUS46 KMTR 171100
TAFSNS
TAF
KSNS 171139Z 1712/1812 00000KT P6SM BKN006
      TEMPO 1712/1716 OVC004
     FM171700 29011KT P6SM SKC
     FM180300 24004KT P6SM FEW008 PROB30 1808/1812 P6SM -SHRA
      BKN025=



000
FTUS46 KMTR 171100
TAFMRY
TAF
KMRY 171139Z 1712/1812 10003KT 1/4SM FG VV001
     FM171730 29008KT P6SM SKC
     FM180300 24004KT P6SM SCT009
     FM180600 24003KT P6SM OVC007 PROB30 1808/1812 P6SM -SHRA
      BKN025=



000
FTUS46 KMTR 171000 AAB
TAFSNS
TAF AMD
KSNS 171019Z 1710/1806 00000KT P6SM SKC
      TEMPO 1712/1716 OVC004
     FM171700 29011KT P6SM SKC
     FM180300 24004KT P6SM FEW008=



000
FTUS46 KMTR 171000 AAA
TAFMRY
TAF AMD
KMRY 171015Z 1710/1806 00000KT P6SM SCT003
      TEMPO 1710/1714 BKN003
     FM171800 29008KT P6SM SKC
     FM180300 24004KT P6SM SCT009=



000
FTUS46 KMTR 170900 AAA
TAFSFO
TAF AMD
KSFO 170903Z 1709/1812 29006KT P6SM FEW010 BKN150
      TEMPO 1713/1717 BKN010
     FM171800 28005KT P6SM SCT015
     FM172000 28015KT P6SM SKC
     FM180400 28009KT P6SM SKC=



000
FTUS46 KMTR 170800 AAA
TAFSNS
TAF AMD
KSNS 170849Z 1709/1806 00000KT P6SM SKC
     FM171000 00000KT P6SM OVC006
     FM171700 29011KT P6SM FEW012
     FM180300 24004KT P6SM SCT010=



000
FTUS46 KMTR 170800 AAA
TAFSTS
TAF AMD
KSTS 170847Z 1709/1806 VRB03KT P6SM BKN008
      TEMPO 1709/1713 BKN005
     FM171300 00000KT P6SM BKN005
     FM171700 00000KT P6SM FEW011=



000
FTUS46 KMTR 170500
TAFSNS
TAF
KSNS 170520Z 1706/1806 29007KT P6SM SKC
     FM170800 VRB03KT P6SM OVC006
     FM171700 29011KT P6SM FEW012
     FM180300 24004KT P6SM SCT010=



000
FTUS46 KMTR 170500
TAFOAK
TAF
KOAK 170520Z 1706/1812 29007KT P6SM FEW010
     FM170900 26005KT P6SM BKN012
     FM171800 26005KT P6SM SCT015
     FM172000 26012KT P6SM FEW012
     FM180300 26009KT P6SM FEW012=



000
FTUS46 KMTR 170500
TAFSFO
TAF
KSFO 170520Z 1706/1812 29010KT P6SM FEW010
     FM171200 28005KT P6SM BKN010
     FM171800 28005KT P6SM SCT015
     FM172000 28015KT P6SM SKC
     FM180400 28009KT P6SM SKC=



000
FTUS46 KMTR 170500
TAFSTS
TAF
KSTS 170520Z 1706/1806 15005KT P6SM SKC
     FM170900 00000KT P6SM SCT005
      TEMPO 1709/1713 BKN005
     FM171300 00000KT P6SM BKN005
     FM171700 00000KT P6SM FEW011=



000
FTUS46 KMTR 170500
TAFSJC
TAF
KSJC 170520Z 1706/1806 30007KT P6SM SKC
     FM170900 VRB03KT P6SM SKC
     FM171300 VRB03KT P6SM SCT012
      TEMPO 1714/1717 BKN012
     FM171800 31011KT P6SM FEW012
     FM180300 30009KT P6SM FEW010=



000
FTUS46 KMTR 170500
TAFMRY
TAF
KMRY 170520Z 1706/1806 24005KT P6SM SKC
     FM171000 00000KT P6SM OVC006
     FM171700 29007KT P6SM SKC
     FM180300 24004KT P6SM SCT009=



000
FTUS46 KMTR 170300 AAA
TAFSFO
TAF AMD
KSFO 170300Z 1703/1806 29016KT P6SM FEW015 SCT150
     FM170400 29010KT P6SM FEW010
     FM171200 28005KT P6SM BKN010
     FM171800 28005KT P6SM SCT015
     FM172000 28015KT P6SM SKC
     FM180400 28009KT P6SM SKC=



000
FTUS46 KMTR 162300
TAFOAK
TAF
KOAK 162320Z 1700/1806 30012KT P6SM SKC
     FM170300 29007KT P6SM FEW010
     FM170900 26005KT P6SM BKN012
     FM171800 26005KT P6SM SCT015
     FM172000 26012KT P6SM FEW012
     FM180300 26009KT P6SM FEW012=



000
FTUS46 KMTR 162300
TAFMRY
TAF
KMRY 162320Z 1700/1724 29009KT P6SM SKC
     FM170300 24005KT P6SM SKC
     FM171000 00000KT P6SM OVC006
     FM171700 29007KT P6SM SKC=



000
FTUS46 KMTR 162300
TAFSNS
TAF
KSNS 162320Z 1700/1724 29012KT P6SM SKC
     FM170300 29007KT P6SM SKC
     FM170800 VRB03KT P6SM OVC006
     FM171700 29011KT P6SM FEW012=



000
FTUS46 KMTR 162300
TAFSFO
TAF
KSFO 162320Z 1700/1806 29016KT P6SM SKC
     FM170400 29010KT P6SM FEW010
     FM171200 28005KT P6SM BKN010
     FM171800 28005KT P6SM SCT015
     FM172000 28015KT P6SM SKC
     FM180400 28009KT P6SM SKC=



000
FTUS46 KMTR 162300
TAFSTS
TAF
KSTS 162320Z 1700/1724 19008KT P6SM SKC
     FM170300 15005KT P6SM SKC
     FM170900 00000KT P6SM SCT005
     FM171700 00000KT P6SM FEW011=



000
FTUS46 KMTR 162300
TAFSJC
TAF
KSJC 162320Z 1700/1724 30012KT P6SM SKC
     FM170300 30007KT P6SM SKC
     FM170900 VRB03KT P6SM SKC
     FM171300 VRB03KT P6SM SCT012
      TEMPO 1714/1717 BKN012
     FM171800 31011KT P6SM FEW012=



000
FTUS46 KMTR 162100 AAA
TAFSFO
TAF AMD
KSFO 162105Z 1621/1724 29016KT P6SM SKC
     FM170400 29010KT P6SM FEW010
     FM171200 28005KT P6SM BKN010
     FM171800 28005KT P6SM SCT015
     FM172000 28015KT P6SM SKC=



000
FTUS46 KMTR 161700
TAFSJC
TAF
KSJC 161720Z 1618/1718 32005KT P6SM SKC
     FM162200 30012KT P6SM SKC
     FM170300 30007KT P6SM SKC
     FM170900 VRB03KT P6SM SKC
     FM171300 VRB03KT P6SM SCT012
      TEMPO 1714/1717 BKN012=



000
FTUS46 KMTR 161700
TAFOAK
TAF
KOAK 161720Z 1618/1724 29006KT P6SM SKC
     FM161900 30012KT P6SM SKC
     FM170300 29007KT P6SM FEW010
     FM170900 26005KT P6SM BKN012
     FM171800 26005KT P6SM SCT015
     FM172000 26012KT P6SM FEW012=



000
FTUS46 KMTR 161700
TAFSFO
TAF
KSFO 161720Z 1618/1724 08004KT P6SM SKC
     FM162200 30016KT P6SM SKC
     FM170400 29010KT P6SM FEW010
     FM171200 28005KT P6SM BKN010
     FM171800 28005KT P6SM SCT015
     FM172000 28015KT P6SM SKC=



000
FTUS46 KMTR 161700
TAFSTS
TAF
KSTS 161720Z 1618/1718 00000KT P6SM SKC
     FM162000 19008KT P6SM SKC
     FM170300 15005KT P6SM SKC
     FM170900 00000KT P6SM OVC005
     FM171700 00000KT P6SM SCT008=



000
FTUS46 KMTR 161700
TAFMRY
TAF
KMRY 161720Z 1618/1718 VRB03KT P6SM SKC
     FM162000 29009KT P6SM SKC
     FM170300 24005KT P6SM SKC
     FM171000 00000KT P6SM OVC006=



000
FTUS46 KMTR 161700
TAFSNS
TAF
KSNS 161720Z 1618/1718 29005KT P6SM SKC
     FM162100 29012KT P6SM SKC
     FM170300 29007KT P6SM SKC
     FM170800 VRB03KT P6SM OVC006
     FM171700 VRB03KT P6SM SCT010=



000
FTUS46 KMTR 161400 AAA
TAFSJC
TAF AMD
KSJC 161456Z 1615/1712 00000KT P6SM SKC
     FM161800 32007KT P6SM SKC
     FM162200 30012KT P6SM SKC
     FM170300 30007KT P6SM SKC
     FM170900 VRB03KT P6SM SKC=



000
FTUS46 KMTR 161400 AAA
TAFSFO
TAF AMD
KSFO 161452Z 1615/1718 VRB03KT P6SM SCT010
      TEMPO 1615/1617 BKN010
     FM161700 30010KT P6SM FEW010
     FM162000 30017KT P6SM SKC
     FM170400 29011KT P6SM FEW010
     FM171200 VRB04KT P6SM BKN010=



000
FTUS46 KMTR 161300 AAA
TAFSTS
TAF AMD
KSTS 161324Z 1613/1712 00000KT P6SM SKC
     FM162000 19008KT P6SM SKC
     FM170300 15005KT P6SM SKC
     FM170900 00000KT P6SM OVC003=



000
FTUS46 KMTR 161100 CCA
TAFOAK
TAF COR
KOAK 161127Z 1612/1718 28004KT P6SM SCT011
      TEMPO 1612/1616 BKN011
     FM161700 29006KT P6SM FEW010
     FM161900 30011KT P6SM SKC
     FM170300 29007KT P6SM FEW010
     FM170900 26008KT P6SM BKN012=



000
FTUS46 KMTR 161100
TAFSNS
TAF
KSNS 161124Z 1612/1712 VRB03KT P6SM SKC
     FM161800 29005KT P6SM SKC
     FM162100 29012KT P6SM SKC
     FM170300 29007KT P6SM SKC
     FM170800 VRB03KT P6SM OVC006=



000
FTUS46 KMTR 161100
TAFSFO
TAF
KSFO 161124Z 1612/1718 VRB03KT P6SM FEW009
      TEMPO 1613/1617 BKN011
     FM161700 30010KT P6SM FEW010
     FM162000 30017KT P6SM SKC
     FM170400 29011KT P6SM FEW010
     FM171200 VRB04KT P6SM BKN010=



000
FTUS46 KMTR 161100
TAFMRY
TAF
KMRY 161124Z 1612/1712 00000KT P6SM SKC
     FM161700 VRB03KT P6SM SKC
     FM162000 29009KT P6SM SKC
     FM170300 24005KT P6SM SKC
     FM170800 00000KT P6SM OVC006=



000
FTUS46 KMTR 161100
TAFOAK
TAF
KOAK 161124Z 1612/1718 28004KT P6SM SCT011
      TEMPO 1613/1617 BKN011
     FM161700 29006KT P6SM FEW010
     FM161900 30011KT P6SM SKC
     FM170300 29007KT P6SM FEW010
     FM170900 26008KT P6SM BKN012=



000
FTUS46 KMTR 161100
TAFSTS
TAF
KSTS 161124Z 1612/1712 VRB03KT P6SM SKC
      TEMPO 1612/1616 1/2SM FG OVC002
     FM162000 19008KT P6SM SKC
     FM170300 15005KT P6SM SKC
     FM170900 00000KT P6SM OVC003=



000
FTUS46 KMTR 161100
TAFSJC
TAF
KSJC 161124Z 1612/1712 00000KT P6SM SKC
      TEMPO 1614/1618 BKN012
     FM161800 32007KT P6SM SKC
     FM162200 30012KT P6SM SKC
     FM170300 30007KT P6SM SKC
     FM170900 VRB03KT P6SM SKC=



000
FTUS46 KMTR 161100 AAB
TAFMRY
TAF AMD
KMRY 161111Z 1611/1706 00000KT P6SM SKC
     FM161700 VRB03KT P6SM SKC
     FM162000 29009KT P6SM SKC
     FM170300 24005KT P6SM SKC=



000
FTUS46 KMTR 161000 AAA
TAFSTS
TAF AMD
KSTS 161023Z 1610/1706 00000KT P6SM SKC
     FM161200 00000KT P6SM OVC007
     FM161730 00000KT P6SM SKC
     FM162000 19008KT P6SM SKC
     FM170300 15005KT P6SM SKC=



000
FTUS46 KMTR 160900 AAA
TAFSNS
TAF AMD
KSNS 160909Z 1609/1706 00000KT P6SM SKC
     FM161200 29005KT P6SM OVC006
     FM161800 29005KT P6SM SKC
     FM162100 29012KT P6SM SKC
     FM170300 29007KT P6SM SKC=



000
FTUS46 KMTR 160900 AAA
TAFOAK
TAF AMD
KOAK 160907Z 1609/1712 30006KT P6SM FEW010
      TEMPO 1612/1616 FEW008 BKN011
     FM161700 29006KT P6SM FEW010
     FM161900 30011KT P6SM SKC
     FM170300 26007KT P6SM FEW010=



000
FTUS46 KMTR 160900 AAA
TAFSFO
TAF AMD
KSFO 160905Z 1609/1712 28004KT P6SM SCT008
      TEMPO 1612/1616 FEW008 BKN011
     FM161700 30010KT P6SM FEW010
     FM162000 30017KT P6SM SKC
     FM170400 29011KT P6SM FEW010=



000
FTUS46 KMTR 160800 AAA
TAFMRY
TAF AMD
KMRY 160824Z 1608/1706 VRB03KT P6SM SKC
     FM161100 00000KT P6SM OVC006
     FM161800 29009KT P6SM SKC=



000
FTUS46 KMTR 160500
TAFMRY
TAF
KMRY 160523Z 1606/1706 28007KT P6SM SKC
     FM160800 00000KT P6SM OVC007
     FM161800 29009KT P6SM SKC
     FM170300 24004KT P6SM BKN007=



000
FTUS46 KMTR 160500
TAFSFO
TAF
KSFO 160523Z 1606/1712 28010KT P6SM SKC
     FM161000 30006KT P6SM FEW008 BKN011
     FM161700 30010KT P6SM FEW010
     FM162000 30017KT P6SM SKC
     FM170400 29011KT P6SM FEW010=



000
FTUS46 KMTR 160500
TAFSJC
TAF
KSJC 160523Z 1606/1706 31003KT P6SM SKC
     FM161800 31011KT P6SM SKC
     FM170300 30007KT P6SM SKC=



000
FTUS46 KMTR 160500
TAFSNS
TAF
KSNS 160523Z 1606/1706 28008KT P6SM SKC
     FM160700 00000KT P6SM SKC
     FM160900 30005KT P6SM OVC006
     FM161700 29012KT P6SM SKC
     FM170300 29007KT P6SM SKC=



000
FTUS46 KMTR 160500
TAFOAK
TAF
KOAK 160523Z 1606/1712 31008KT P6SM SKC
     FM160900 29006KT P6SM BKN010
     FM161700 29006KT P6SM FEW010
     FM161900 30011KT P6SM SKC
     FM170300 26007KT P6SM FEW010=



000
FTUS46 KMTR 160500
TAFSTS
TAF
KSTS 160523Z 1606/1706 15003KT P6SM SKC
     FM161000 00000KT P6SM OVC007
     FM161730 19007KT P6SM SKC
     FM170300 VRB03KT P6SM SKC=



000
FTUS46 KMTR 160400 AAA
TAFSFO
TAF AMD
KSFO 160437Z 1605/1706 28010KT P6SM SKC
     FM161000 30006KT P6SM FEW008 BKN011
     FM161700 30010KT P6SM FEW010
     FM162000 30017KT P6SM SKC
     FM170400 29011KT P6SM FEW010=



000
FTUS46 KMTR 152300
TAFSJC
TAF
KSJC 152330Z 1600/1624 29012KT P6SM FEW180
     FM160500 31003KT P6SM SKC
     FM161800 31011KT P6SM SKC=



000
FTUS46 KMTR 152300
TAFSFO
TAF
KSFO 152330Z 1600/1706 30016KT P6SM FEW010
     FM160400 28010KT P6SM SKC
     FM161000 30006KT P6SM FEW008 BKN011
     FM161700 30010KT P6SM FEW010
     FM162000 30017KT P6SM SKC
     FM170400 29011KT P6SM FEW010=



000
FTUS46 KMTR 152300
TAFSNS
TAF
KSNS 152330Z 1600/1624 27012KT P6SM SKC
     FM160200 28008KT P6SM SKC
     FM160700 00000KT P6SM SKC
     FM160900 30005KT P6SM OVC006
     FM161700 29009KT P6SM SKC=



000
FTUS46 KMTR 152300
TAFMRY
TAF
KMRY 152330Z 1600/1624 28007KT P6SM SKC
     FM160800 00000KT P6SM OVC007
     FM161800 29009KT P6SM SKC=



000
FTUS46 KMTR 152300
TAFSTS
TAF
KSTS 152330Z 1600/1624 18009KT P6SM SKC
     FM160300 15003KT P6SM SKC
     FM161000 00000KT P6SM OVC007
     FM161730 19007KT P6SM SKC=



000
FTUS46 KMTR 152300
TAFOAK
TAF
KOAK 152330Z 1600/1706 29012KT P6SM FEW180
     FM160300 31008KT P6SM SKC
     FM160900 29006KT P6SM BKN010
     FM161700 29006KT P6SM FEW010
     FM161900 30011KT P6SM SKC
     FM170300 26007KT P6SM FEW010=



000
FTUS46 KMTR 152000 AAA
TAFSFO
TAF AMD
KSFO 152058Z 1521/1624 30016KT P6SM FEW010
     FM160400 28010KT P6SM SKC
     FM161000 30006KT P6SM FEW008 BKN011
     FM161700 30010KT P6SM FEW010
     FM162000 30017KT P6SM FEW010=



000
FTUS46 KMTR 151700
TAFSJC
TAF
KSJC 151737Z 1518/1618 32006KT P6SM FEW010
     FM152000 29010KT P6SM FEW180
     FM160500 31003KT P6SM SKC=



000
FTUS46 KMTR 151700
TAFOAK
TAF
KOAK 151737Z 1518/1624 29007KT P6SM SCT010
     FM152000 29012KT P6SM FEW180
     FM160300 31008KT P6SM SKC
     FM160900 29006KT P6SM BKN010
     FM161700 29006KT P6SM FEW010=



000
FTUS46 KMTR 151700
TAFSNS
TAF
KSNS 151737Z 1518/1618 29004KT P6SM SKC
     FM152100 27012KT P6SM SKC
     FM160200 28008KT P6SM SKC
     FM160700 00000KT P6SM SKC
     FM160900 30005KT P6SM OVC006=



000
FTUS46 KMTR 151700
TAFMRY
TAF
KMRY 151737Z 1518/1618 28007KT P6SM SKC
     FM160800 00000KT P6SM OVC007=



000
FTUS46 KMTR 151700
TAFSTS
TAF
KSTS 151737Z 1518/1618 19004KT P6SM SKC
     FM152100 18009KT P6SM SKC
     FM160300 15003KT P6SM SKC
     FM161000 00000KT P6SM OVC007=



000
FTUS46 KMTR 151700
TAFSFO
TAF
KSFO 151737Z 1518/1624 30016KT P6SM FEW010
     FM160400 28010KT P6SM SKC
     FM161000 30006KT P6SM FEW008 BKN011
     FM161700 30010KT P6SM FEW010
     FM162000 30017KT P6SM FEW010=



000
FTUS46 KMTR 151700 AAB
TAFSNS
TAF AMD
KSNS 151708Z 1517/1612 28005KT P6SM OVC010
     FM151730 29004KT P6SM SKC
     FM152100 27012KT P6SM SKC
     FM160200 28008KT P6SM SKC
     FM160700 00000KT P6SM SKC
     FM160900 30005KT P6SM OVC006=



000
FTUS46 KMTR 151700 AAA
TAFMRY
TAF AMD
KMRY 151707Z 1517/1612 32004KT P6SM FEW010
     FM151800 28007KT P6SM SKC
     FM160800 00000KT P6SM OVC007=



000
FTUS46 KMTR 151700 AAB
TAFSTS
TAF AMD
KSTS 151706Z 1517/1612 00000KT 4SM BR BKN005
     FM151800 19004KT P6SM SKC
     FM152100 18009KT P6SM SKC
     FM160300 15003KT P6SM SKC
     FM161000 00000KT P6SM OVC007=



000
FTUS46 KMTR 151700 AAA
TAFSJC
TAF AMD
KSJC 151706Z 1517/1612 32004KT P6SM BKN015
     FM151730 32006KT P6SM FEW010
     FM152000 29010KT P6SM FEW180
     FM160500 31003KT P6SM SKC=



000
FTUS46 KMTR 151700 AAA
TAFOAK
TAF AMD
KOAK 151705Z 1517/1618 29006KT P6SM BKN011
     FM151800 29007KT P6SM SCT010
     FM152000 29012KT P6SM FEW180
     FM160300 31008KT P6SM SKC
     FM161000 29006KT P6SM BKN010=



000
FTUS46 KMTR 151600 AAB
TAFSFO
TAF AMD
KSFO 151603Z 1516/1618 28010KT P6SM FEW008 BKN011
     FM151700 30016KT P6SM FEW010
     FM160400 28010KT P6SM SKC
     FM161500 30006KT P6SM FEW008 BKN011=



000
FTUS46 KMTR 151500 AAA
TAFSTS
TAF AMD
KSTS 151557Z 1516/1612 00000KT 1/2SM FG OVC002
     FM151700 19004KT P6SM SKC
     FM152100 18009KT P6SM SKC
     FM160300 15003KT P6SM SKC
     FM161000 00000KT P6SM OVC007=



000
FTUS46 KMTR 151500 AAA
TAFSFO
TAF AMD
KSFO 151500Z 1515/1618 28010KT P6SM SKC
     FM152200 30018KT P6SM SKC
     FM160400 28010KT P6SM SKC
     FM161500 30006KT P6SM FEW008 BKN011=



000
FTUS46 KMTR 151200 AAA
TAFSNS
TAF AMD
KSNS 151216Z 1512/1612 VRB03KT P6SM OVC007
     FM151600 29004KT P6SM SKC
     FM152100 27012KT P6SM SKC
     FM160200 28008KT P6SM SKC
     FM160700 00000KT P6SM SKC
     FM160900 30005KT P6SM OVC006=



000
FTUS46 KMTR 151100
TAFSNS
TAF
KSNS 151136Z 1512/1612 28005KT P6SM SKC
     FM151700 29004KT P6SM SKC
     FM152100 27012KT P6SM SKC
     FM160200 28008KT P6SM SKC
     FM160700 00000KT P6SM SKC
     FM160900 30005KT P6SM OVC006=



000
FTUS46 KMTR 151100
TAFOAK
TAF
KOAK 151136Z 1512/1618 29006KT P6SM BKN011
     FM151700 29007KT P6SM SCT010
     FM152000 29012KT P6SM FEW180
     FM160300 31008KT P6SM SKC
     FM161000 29006KT P6SM BKN010=



000
FTUS46 KMTR 151100
TAFMRY
TAF
KMRY 151136Z 1512/1612 VRB04KT P6SM BKN006
     FM151300 00000KT 2SM BR OVC003
     FM151500 31004KT P6SM BKN005
     FM151800 28007KT P6SM SKC
     FM160800 00000KT P6SM OVC007=



000
FTUS46 KMTR 151100
TAFSTS
TAF
KSTS 151136Z 1512/1612 00000KT P6SM OVC005
     FM151800 19004KT P6SM SKC
     FM152100 18009KT P6SM SKC
     FM160300 15003KT P6SM SKC
     FM161000 00000KT P6SM OVC007=



000
FTUS46 KMTR 151100
TAFSFO
TAF
KSFO 151136Z 1512/1618 28007KT P6SM FEW009 SCT011
      TEMPO 1514/1518 FEW008 BKN011
     FM152200 30018KT P6SM FEW012
     FM160400 28010KT P6SM FEW010
      TEMPO 1614/1618 FEW008 BKN011=



000
FTUS46 KMTR 151100
TAFSJC
TAF
KSJC 151136Z 1512/1612 31004KT P6SM SKC
      TEMPO 1513/1517 00000KT 6SM BR BKN010
     FM151700 00000KT P6SM FEW010
     FM152000 29010KT P6SM FEW180
     FM160500 31003KT P6SM SKC=



000
FTUS46 KMTR 151100 AAA
TAFSTS
TAF AMD
KSTS 151128Z 1511/1606 00000KT P6SM OVC005
     FM151800 19004KT P6SM SKC
     FM152100 18009KT P6SM SKC
     FM160300 15003KT P6SM SKC=



000
FTUS46 KMTR 151100 AAA
TAFMRY
TAF AMD
KMRY 151126Z 1511/1606 VRB04KT P6SM BKN006
     FM151300 00000KT 2SM BR OVC003
     FM151500 31004KT P6SM BKN005
     FM151800 28007KT P6SM SKC=



000
FTUS46 KMTR 151100 AAA
TAFOAK
TAF AMD
KOAK 151125Z 1511/1612 29006KT P6SM BKN011
     FM151700 29007KT P6SM SCT010
     FM152000 29012KT P6SM FEW180
     FM160300 31008KT P6SM SKC
     FM161000 29006KT P6SM BKN010=



000
FTUS46 KMTR 150900 AAA
TAFSFO
TAF AMD
KSFO 150906Z 1509/1612 28011KT P6SM FEW009 SCT018
     FM151400 28004KT P6SM FEW008 BKN011
     FM151800 29010KT P6SM FEW008
     FM152200 30018KT P6SM FEW012
     FM160400 30010KT P6SM FEW010=



000
FTUS46 KMTR 150500
TAFSTS
TAF
KSTS 150539Z 1506/1606 16005KT P6SM SKC
     FM150900 VRB03KT P6SM OVC003
     FM151400 00000KT P6SM OVC005
     FM151800 19004KT P6SM SKC
     FM152100 18009KT P6SM SKC=



000
FTUS46 KMTR 150500
TAFMRY
TAF
KMRY 150539Z 1506/1606 24005KT P6SM SKC
     FM151200 00000KT 2SM BR OVC003
     FM151500 31004KT P6SM BKN005
     FM151800 28007KT P6SM SKC=



000
FTUS46 KMTR 150500
TAFSFO
TAF
KSFO 150539Z 1506/1612 29010KT P6SM FEW011
     FM151400 28004KT P6SM FEW008 BKN011
     FM151800 29010KT P6SM FEW008
     FM152200 30018KT P6SM FEW012
     FM160400 30010KT P6SM FEW010=



000
FTUS46 KMTR 150500
TAFOAK
TAF
KOAK 150539Z 1506/1612 29007KT P6SM FEW010
     FM151200 30004KT P6SM BKN010
     FM151500 29003KT P6SM SCT010
     FM152000 29012KT P6SM FEW180
     FM160300 31008KT P6SM SKC=



000
FTUS46 KMTR 150500
TAFSJC
TAF
KSJC 150539Z 1506/1606 29005KT P6SM SKC
     FM151300 VRB04KT P6SM BKN008
     FM151700 00000KT P6SM FEW012
     FM152000 29010KT P6SM FEW180=



000
FTUS46 KMTR 150500
TAFSNS
TAF
KSNS 150539Z 1506/1606 30007KT P6SM SKC
     FM151700 29004KT P6SM SKC
     FM152100 27012KT P6SM SKC=



000
FTUS46 KMTR 150300 AAA
TAFSFO
TAF AMD
KSFO 150301Z 1503/1606 29016KT P6SM FEW011 SCT018
     FM150400 30010KT P6SM FEW011
     FM151400 28004KT P6SM FEW008 BKN011
     FM151800 29010KT P6SM FEW008
     FM152200 30018KT P6SM FEW012
     FM160400 30010KT P6SM FEW010=



    US Dept of Commerce
    National Oceanic and Atmospheric Administration
    National Weather Service
    1325 East West Highway
    Silver Spring, MD 20910
    Page Author: NWS Internet Services Team
Disclaimer
Information Quality
Credits
Glossary
Privacy Policy
Freedom of Information Act (FOIA)
About Us
Career Opportunities